sensor_id;sensor_type;location;lat;lon;timestamp;pressure;altitude;pressure_sealevel;temperature;humidity
79589;BME280;69067;51.930;4.492;2023-05-16T00:00:20;102001.84;;;19.65;47.70
79589;BME280;69067;51.930;4.492;2023-05-16T00:02:46;102006.25;;;19.66;47.49
79589;BME280;69067;51.930;4.492;2023-05-16T00:05:12;101993.72;;;19.65;47.91
79589;BME280;69067;51.930;4.492;2023-05-16T00:07:42;102003.53;;;19.66;48.26
79589;BME280;69067;51.930;4.492;2023-05-16T00:10:09;102007.81;;;19.69;47.30
79589;BME280;69067;51.930;4.492;2023-05-16T00:12:36;102004.53;;;19.65;48.13
79589;BME280;69067;51.930;4.492;2023-05-16T00:15:08;102002.84;;;19.64;47.92
79589;BME280;69067;51.930;4.492;2023-05-16T00:17:37;102010.78;;;19.65;48.06
79589;BME280;69067;51.930;4.492;2023-05-16T00:20:03;102013.34;;;19.67;47.71
79589;BME280;69067;51.930;4.492;2023-05-16T00:22:32;102009.56;;;19.60;47.26
79589;BME280;69067;51.930;4.492;2023-05-16T00:24:58;102007.66;;;19.70;47.37
79589;BME280;69067;51.930;4.492;2023-05-16T00:27:24;102004.53;;;19.65;47.65
79589;BME280;69067;51.930;4.492;2023-05-16T00:29:50;102005.09;;;19.69;47.69
79589;BME280;69067;51.930;4.492;2023-05-16T00:32:17;102009.94;;;19.65;48.01
79589;BME280;69067;51.930;4.492;2023-05-16T00:34:42;102003.53;;;19.66;47.76
79589;BME280;69067;51.930;4.492;2023-05-16T00:37:08;101999.13;;;19.65;48.52
79589;BME280;69067;51.930;4.492;2023-05-16T00:39:34;102001.69;;;19.66;48.29
79589;BME280;69067;51.930;4.492;2023-05-16T00:42:00;102011.34;;;19.69;47.73
79589;BME280;69067;51.930;4.492;2023-05-16T00:44:25;102011.66;;;19.66;48.27
79589;BME280;69067;51.930;4.492;2023-05-16T00:46:52;102008.25;;;19.64;48.35
79589;BME280;69067;51.930;4.492;2023-05-16T00:49:18;102019.59;;;19.67;48.36
79589;BME280;69067;51.930;4.492;2023-05-16T00:51:44;102012.34;;;19.68;48.94
79589;BME280;69067;51.930;4.492;2023-05-16T00:54:11;102011.34;;;19.69;48.16
79589;BME280;69067;51.930;4.492;2023-05-16T00:56:37;102015.75;;;19.70;47.78
79589;BME280;69067;51.930;4.492;2023-05-16T00:59:02;102008.66;;;19.69;48.45
79589;BME280;69067;51.930;4.492;2023-05-16T01:01:29;102014.19;;;19.67;48.31
79589;BME280;69067;51.930;4.492;2023-05-16T01:03:55;102006.25;;;19.66;48.45
79589;BME280;69067;51.930;4.492;2023-05-16T01:06:21;102013.91;;;19.71;47.35
79589;BME280;69067;51.930;4.492;2023-05-16T01:08:46;102015.75;;;19.70;47.77
79589;BME280;69067;51.930;4.492;2023-05-16T01:11:33;102012.03;;;19.71;48.35
79589;BME280;69067;51.930;4.492;2023-05-16T01:15:08;102008.31;;;19.72;47.42
79589;BME280;69067;51.930;4.492;2023-05-16T01:17:50;102017.44;;;19.71;47.56
79589;BME280;69067;51.930;4.492;2023-05-16T01:20:27;102016.44;;;19.72;48.00
79589;BME280;69067;51.930;4.492;2023-05-16T01:28:40;102018.00;;;19.75;49.04
79589;BME280;69067;51.930;4.492;2023-05-16T01:31:06;102011.59;;;19.76;47.93
79589;BME280;69067;51.930;4.492;2023-05-16T01:33:32;102015.13;;;19.76;48.13
79589;BME280;69067;51.930;4.492;2023-05-16T01:36:31;102017.84;;;19.76;48.76
79589;BME280;69067;51.930;4.492;2023-05-16T01:42:03;102011.88;;;19.73;48.28
79589;BME280;69067;51.930;4.492;2023-05-16T01:44:42;102015.56;;;19.72;48.04
79589;BME280;69067;51.930;4.492;2023-05-16T01:47:15;102014.13;;;19.77;47.58
79589;BME280;69067;51.930;4.492;2023-05-16T01:55:38;102020.38;;;19.78;48.35
79589;BME280;69067;51.930;4.492;2023-05-16T01:58:14;102017.00;;;19.76;47.86
79589;BME280;69067;51.930;4.492;2023-05-16T02:00:40;102019.00;;;19.74;48.38
79589;BME280;69067;51.930;4.492;2023-05-16T02:03:07;102027.78;;;19.76;48.20
79589;BME280;69067;51.930;4.492;2023-05-16T02:05:33;102023.78;;;19.80;48.59
79589;BME280;69067;51.930;4.492;2023-05-16T02:07:59;102026.09;;;19.75;48.26
79589;BME280;69067;51.930;4.492;2023-05-16T02:10:26;102020.38;;;19.78;48.71
79589;BME280;69067;51.930;4.492;2023-05-16T02:12:52;102025.94;;;19.76;47.83
79589;BME280;69067;51.930;4.492;2023-05-16T02:15:18;102032.03;;;19.78;47.57
79589;BME280;69067;51.930;4.492;2023-05-16T02:17:43;102030.50;;;19.76;48.59
79589;BME280;69067;51.930;4.492;2023-05-16T02:20:10;102030.19;;;19.79;47.97
79589;BME280;69067;51.930;4.492;2023-05-16T02:22:36;102034.44;;;19.81;47.84
79589;BME280;69067;51.930;4.492;2023-05-16T02:25:07;102033.44;;;19.82;48.05
79589;BME280;69067;51.930;4.492;2023-05-16T02:27:33;102026.09;;;19.75;48.34
79589;BME280;69067;51.930;4.492;2023-05-16T02:29:58;102020.69;;;19.75;48.68
79589;BME280;69067;51.930;4.492;2023-05-16T02:32:24;102025.94;;;19.76;48.56
79589;BME280;69067;51.930;4.492;2023-05-16T02:34:50;102030.34;;;19.77;47.59
79589;BME280;69067;51.930;4.492;2023-05-16T02:37:16;102041.84;;;19.79;48.05
79589;BME280;69067;51.930;4.492;2023-05-16T02:39:42;102039.13;;;19.79;48.93
79589;BME280;69067;51.930;4.492;2023-05-16T02:42:08;102040.84;;;19.80;48.53
79589;BME280;69067;51.930;4.492;2023-05-16T02:44:33;102035.06;;;19.75;48.59
79589;BME280;69067;51.930;4.492;2023-05-16T02:46:59;102048.25;;;19.78;48.00
79589;BME280;69067;51.930;4.492;2023-05-16T02:49:25;102045.72;;;19.77;48.04
79589;BME280;69067;51.930;4.492;2023-05-16T02:51:51;102051.13;;;19.77;48.65
79589;BME280;69067;51.930;4.492;2023-05-16T02:54:18;102051.97;;;19.77;48.35
79589;BME280;69067;51.930;4.492;2023-05-16T02:56:43;102041.59;;;19.73;47.88
79589;BME280;69067;51.930;4.492;2023-05-16T02:59:11;102048.84;;;19.72;48.27
79589;BME280;69067;51.930;4.492;2023-05-16T03:01:37;102043.47;;;19.72;47.95
79589;BME280;69067;51.930;4.492;2023-05-16T03:04:03;102045.16;;;19.73;48.25
79589;BME280;69067;51.930;4.492;2023-05-16T03:06:29;102049.19;;;19.69;49.02
79589;BME280;69067;51.930;4.492;2023-05-16T03:08:57;102055.25;;;19.71;47.94
79589;BME280;69067;51.930;4.492;2023-05-16T03:11:23;102052.28;;;19.74;48.19
79589;BME280;69067;51.930;4.492;2023-05-16T03:13:49;102054.25;;;19.72;49.03
79589;BME280;69067;51.930;4.492;2023-05-16T03:16:15;102054.44;;;19.71;48.85
79589;BME280;69067;51.930;4.492;2023-05-16T03:18:41;102052.31;;;19.64;48.58
79589;BME280;69067;51.930;4.492;2023-05-16T03:21:07;102068.25;;;19.67;48.43
79589;BME280;69067;51.930;4.492;2023-05-16T03:23:33;102063.69;;;19.68;48.39
79589;BME280;69067;51.930;4.492;2023-05-16T03:25:58;102063.69;;;19.68;48.12
79589;BME280;69067;51.930;4.492;2023-05-16T03:28:25;102069.81;;;19.70;48.71
79589;BME280;69067;51.930;4.492;2023-05-16T03:30:51;102062.56;;;19.71;48.29
79589;BME280;69067;51.930;4.492;2023-05-16T03:33:17;102070.81;;;19.69;48.32
79589;BME280;69067;51.930;4.492;2023-05-16T03:35:44;102067.09;;;19.70;47.98
79589;BME280;69067;51.930;4.492;2023-05-16T03:38:10;102069.09;;;19.68;48.80
79589;BME280;69067;51.930;4.492;2023-05-16T03:40:36;102070.94;;;19.67;48.81
79589;BME280;69067;51.930;4.492;2023-05-16T03:43:02;102070.81;;;19.69;48.30
79589;BME280;69067;51.930;4.492;2023-05-16T03:45:31;102070.09;;;19.67;48.92
79589;BME280;69067;51.930;4.492;2023-05-16T03:47:57;102063.56;;;19.70;48.54
79589;BME280;69067;51.930;4.492;2023-05-16T03:50:23;102060.28;;;19.66;48.11
79589;BME280;69067;51.930;4.492;2023-05-16T03:52:49;102062.69;;;19.69;48.86
79589;BME280;69067;51.930;4.492;2023-05-16T03:55:14;102065.41;;;19.69;48.25
79589;BME280;69067;51.930;4.492;2023-05-16T03:57:41;102069.81;;;19.70;49.16
79589;BME280;69067;51.930;4.492;2023-05-16T04:00:08;102077.06;;;19.70;47.90
79589;BME280;69067;51.930;4.492;2023-05-16T04:02:35;102071.81;;;19.68;48.24
79589;BME280;69067;51.930;4.492;2023-05-16T04:05:01;102072.28;;;19.63;48.05
79589;BME280;69067;51.930;4.492;2023-05-16T04:07:27;102067.69;;;19.64;48.67
79589;BME280;69067;51.930;4.492;2023-05-16T04:09:53;102080.91;;;19.67;48.19
79589;BME280;69067;51.930;4.492;2023-05-16T04:12:20;102091.56;;;19.69;48.19
79589;BME280;69067;51.930;4.492;2023-05-16T04:14:47;102085.47;;;19.66;47.62
79589;BME280;69067;51.930;4.492;2023-05-16T04:17:13;102095.28;;;19.67;48.23
79589;BME280;69067;51.930;4.492;2023-05-16T04:19:39;102091.00;;;19.65;48.68
79589;BME280;69067;51.930;4.492;2023-05-16T04:22:05;102093.56;;;19.66;48.85
79589;BME280;69067;51.930;4.492;2023-05-16T04:24:32;102093.56;;;19.66;48.85
79589;BME280;69067;51.930;4.492;2023-05-16T04:26:58;102093.19;;;19.61;48.05
79589;BME280;69067;51.930;4.492;2023-05-16T04:29:24;102091.00;;;19.65;48.02
79589;BME280;69067;51.930;4.492;2023-05-16T04:31:50;102095.88;;;19.61;48.77
79589;BME280;69067;51.930;4.492;2023-05-16T04:34:15;102106.38;;;19.64;48.98
79589;BME280;69067;51.930;4.492;2023-05-16T04:36:42;102107.41;;;19.63;47.98
79589;BME280;69067;51.930;4.492;2023-05-16T04:39:08;102097.25;;;19.65;48.00
79589;BME280;69067;51.930;4.492;2023-05-16T04:41:34;102106.22;;;19.66;48.47
79589;BME280;69067;51.930;4.492;2023-05-16T04:44:01;102102.81;;;19.64;48.46
79589;BME280;69067;51.930;4.492;2023-05-16T04:46:30;102103.50;;;19.66;48.17
79589;BME280;69067;51.930;4.492;2023-05-16T04:48:56;102104.50;;;19.65;48.35
79589;BME280;69067;51.930;4.492;2023-05-16T04:51:22;102111.63;;;19.66;48.71
79589;BME280;69067;51.930;4.492;2023-05-16T04:53:47;102107.22;;;19.65;48.01
79589;BME280;69067;51.930;4.492;2023-05-16T04:56:13;102114.31;;;19.66;49.04
79589;BME280;69067;51.930;4.492;2023-05-16T04:58:39;102116.19;;;19.65;48.25
79589;BME280;69067;51.930;4.492;2023-05-16T05:01:04;102111.94;;;19.63;49.10
79589;BME280;69067;51.930;4.492;2023-05-16T05:03:30;102118.88;;;19.65;48.89
79589;BME280;69067;51.930;4.492;2023-05-16T05:05:56;102118.03;;;19.65;48.08
79589;BME280;69067;51.930;4.492;2023-05-16T05:08:22;102124.28;;;19.65;48.88
79589;BME280;69067;51.930;4.492;2023-05-16T05:10:47;102125.13;;;19.66;49.32
79589;BME280;69067;51.930;4.492;2023-05-16T05:13:13;102130.69;;;19.64;48.47
79589;BME280;69067;51.930;4.492;2023-05-16T05:15:39;102120.72;;;19.65;48.75
79589;BME280;69067;51.930;4.492;2023-05-16T05:18:05;102121.72;;;19.64;48.36
79589;BME280;69067;51.930;4.492;2023-05-16T05:20:30;102130.53;;;19.66;49.26
79589;BME280;69067;51.930;4.492;2023-05-16T05:22:56;102134.25;;;19.65;48.21
79589;BME280;69067;51.930;4.492;2023-05-16T05:25:22;102130.53;;;19.66;48.74
79589;BME280;69067;51.930;4.492;2023-05-16T05:27:48;102133.25;;;19.66;48.55
79589;BME280;69067;51.930;4.492;2023-05-16T05:30:13;102133.56;;;19.63;48.15
79589;BME280;69067;51.930;4.492;2023-05-16T05:32:39;102139.66;;;19.65;48.18
79589;BME280;69067;51.930;4.492;2023-05-16T05:35:05;102141.66;;;19.63;48.24
79589;BME280;69067;51.930;4.492;2023-05-16T05:37:32;102139.66;;;19.65;49.04
79589;BME280;69067;51.930;4.492;2023-05-16T05:39:58;102133.84;;;19.60;48.25
79589;BME280;69067;51.930;4.492;2023-05-16T05:42:23;102142.34;;;19.65;48.32
79589;BME280;69067;51.930;4.492;2023-05-16T05:44:49;102145.03;;;19.65;48.80
79589;BME280;69067;51.930;4.492;2023-05-16T05:47:15;102141.66;;;19.63;47.94
79589;BME280;69067;51.930;4.492;2023-05-16T05:49:41;102146.75;;;19.66;48.73
79589;BME280;69067;51.930;4.492;2023-05-16T05:52:07;102142.19;;;19.66;48.55
79589;BME280;69067;51.930;4.492;2023-05-16T05:54:34;102145.38;;;19.62;47.97
79589;BME280;69067;51.930;4.492;2023-05-16T05:57:00;102134.84;;;19.59;48.65
79589;BME280;69067;51.930;4.492;2023-05-16T05:59:26;102144.19;;;19.64;48.76
79589;BME280;69067;51.930;4.492;2023-05-16T06:01:52;102155.84;;;19.65;48.61
79589;BME280;69067;51.930;4.492;2023-05-16T06:04:19;102154.16;;;19.64;48.58
79589;BME280;69067;51.930;4.492;2023-05-16T06:06:45;102152.47;;;19.63;48.37
79589;BME280;69067;51.930;4.492;2023-05-16T06:09:11;102156.03;;;19.63;48.32
79589;BME280;69067;51.930;4.492;2023-05-16T06:11:38;102156.84;;;19.64;48.81
79589;BME280;69067;51.930;4.492;2023-05-16T06:14:04;102154.16;;;19.64;48.75
79589;BME280;69067;51.930;4.492;2023-05-16T06:16:30;102158.72;;;19.63;48.20
79589;BME280;69067;51.930;4.492;2023-05-16T06:18:55;102156.84;;;19.64;48.19
79589;BME280;69067;51.930;4.492;2023-05-16T06:21:21;102161.81;;;19.69;49.12
79589;BME280;69067;51.930;4.492;2023-05-16T06:23:47;102164.38;;;19.70;48.71
79589;BME280;69067;51.930;4.492;2023-05-16T06:26:12;102169.22;;;19.66;48.45
79589;BME280;69067;51.930;4.492;2023-05-16T06:28:38;102164.66;;;19.67;48.33
79589;BME280;69067;51.930;4.492;2023-05-16T06:31:04;102159.56;;;19.64;48.59
79589;BME280;69067;51.930;4.492;2023-05-16T06:33:29;102171.06;;;19.66;48.76
79589;BME280;69067;51.930;4.492;2023-05-16T06:35:55;102170.22;;;19.65;48.31
79589;BME280;69067;51.930;4.492;2023-05-16T06:38:21;102162.81;;;19.67;48.88
79589;BME280;69067;51.930;4.492;2023-05-16T06:40:47;102168.38;;;19.66;48.61
79589;BME280;69067;51.930;4.492;2023-05-16T06:43:13;102171.22;;;19.64;48.05
79589;BME280;69067;51.930;4.492;2023-05-16T06:45:39;102172.91;;;19.65;48.71
79589;BME280;69067;51.930;4.492;2023-05-16T06:48:06;102168.69;;;19.63;48.95
79589;BME280;69067;51.930;4.492;2023-05-16T06:50:32;102173.06;;;19.64;47.79
79589;BME280;69067;51.930;4.492;2023-05-16T06:53:00;102169.97;;;19.59;48.88
79589;BME280;69067;51.930;4.492;2023-05-16T06:55:26;102175.09;;;19.62;48.65
79589;BME280;69067;51.930;4.492;2023-05-16T06:57:51;102165.16;;;19.53;48.59
79589;BME280;69067;51.930;4.492;2023-05-16T07:00:18;102183.34;;;19.60;49.23
79589;BME280;69067;51.930;4.492;2023-05-16T07:02:44;102183.72;;;19.65;48.35
79589;BME280;69067;51.930;4.492;2023-05-16T07:05:09;102189.28;;;19.64;48.58
79589;BME280;69067;51.930;4.492;2023-05-16T07:07:35;102187.03;;;19.59;48.20
79589;BME280;69067;51.930;4.492;2023-05-16T07:10:02;102193.88;;;19.63;48.58
79589;BME280;69067;51.930;4.492;2023-05-16T07:12:28;102186.03;;;19.60;49.09
79589;BME280;69067;51.930;4.492;2023-05-16T07:14:53;102196.72;;;19.62;48.56
79589;BME280;69067;51.930;4.492;2023-05-16T07:17:19;102190.72;;;19.58;48.40
79589;BME280;69067;51.930;4.492;2023-05-16T07:19:45;102194.00;;;19.62;49.32
79589;BME280;69067;51.930;4.492;2023-05-16T07:22:11;102192.59;;;19.58;48.74
79589;BME280;69067;51.930;4.492;2023-05-16T07:24:37;102203.81;;;19.63;47.96
79589;BME280;69067;51.930;4.492;2023-05-16T07:27:02;102207.66;;;19.60;49.04
79589;BME280;69067;51.930;4.492;2023-05-16T07:29:28;102200.41;;;19.61;49.29
79589;BME280;69067;51.930;4.492;2023-05-16T07:31:55;102199.41;;;19.62;48.55
79589;BME280;69067;51.930;4.492;2023-05-16T07:34:20;102209.38;;;19.61;49.24
79589;BME280;69067;51.930;4.492;2023-05-16T07:36:46;102208.75;;;19.67;48.84
79589;BME280;69067;51.930;4.492;2023-05-16T07:39:12;102200.41;;;19.61;48.90
79589;BME280;69067;51.930;4.492;2023-05-16T07:41:38;102199.25;;;19.63;49.10
79589;BME280;69067;51.930;4.492;2023-05-16T07:44:04;102202.09;;;19.62;48.52
79589;BME280;69067;51.930;4.492;2023-05-16T07:46:30;102204.50;;;19.65;48.73
79589;BME280;69067;51.930;4.492;2023-05-16T07:48:56;102191.31;;;19.62;48.96
79589;BME280;69067;51.930;4.492;2023-05-16T07:51:21;102199.41;;;19.62;49.41
79589;BME280;69067;51.930;4.492;2023-05-16T07:53:47;102202.25;;;19.60;48.43
79589;BME280;69067;51.930;4.492;2023-05-16T07:56:13;102206.19;;;19.66;49.26
79589;BME280;69067;51.930;4.492;2023-05-16T07:58:40;102207.19;;;19.65;48.89
79589;BME280;69067;51.930;4.492;2023-05-16T08:01:06;102211.59;;;19.66;49.66
79589;BME280;69067;51.930;4.492;2023-05-16T08:03:32;102205.34;;;19.65;49.00
79589;BME280;69067;51.930;4.492;2023-05-16T08:05:58;102217.88;;;19.66;48.32
79589;BME280;69067;51.930;4.492;2023-05-16T08:08:24;102214.75;;;19.61;49.15
79589;BME280;69067;51.930;4.492;2023-05-16T08:10:49;102213.59;;;19.64;48.48
79589;BME280;69067;51.930;4.492;2023-05-16T08:13:15;102213.47;;;19.65;48.39
79589;BME280;69067;51.930;4.492;2023-05-16T08:15:41;102217.00;;;19.66;49.05
79589;BME280;69067;51.930;4.492;2023-05-16T08:18:12;102208.38;;;19.62;49.32
79589;BME280;69067;51.930;4.492;2023-05-16T08:20:42;102206.34;;;19.64;48.59
79589;BME280;69067;51.930;4.492;2023-05-16T08:23:08;102223.28;;;19.66;49.00
79589;BME280;69067;51.930;4.492;2023-05-16T08:25:34;102221.41;;;19.67;47.66
79589;BME280;69067;51.930;4.492;2023-05-16T08:28:00;102226.09;;;19.65;49.36
79589;BME280;69067;51.930;4.492;2023-05-16T08:30:27;102213.31;;;19.67;47.83
79589;BME280;69067;51.930;4.492;2023-05-16T08:32:53;102213.59;;;19.64;48.63
79589;BME280;69067;51.930;4.492;2023-05-16T08:35:19;102225.13;;;19.66;48.36
79589;BME280;69067;51.930;4.492;2023-05-16T08:37:44;102216.63;;;19.61;48.05
79589;BME280;69067;51.930;4.492;2023-05-16T08:40:11;102228.69;;;19.66;48.26
79589;BME280;69067;51.930;4.492;2023-05-16T08:42:38;102234.94;;;19.67;49.01
79589;BME280;69067;51.930;4.492;2023-05-16T08:45:07;102229.53;;;19.67;48.86
79589;BME280;69067;51.930;4.492;2023-05-16T08:47:33;102234.94;;;19.67;48.78
79589;BME280;69067;51.930;4.492;2023-05-16T08:50:02;102232.22;;;19.67;48.52
79589;BME280;69067;51.930;4.492;2023-05-16T08:52:31;102229.53;;;19.67;49.29
79589;BME280;69067;51.930;4.492;2023-05-16T08:55:03;102237.50;;;19.69;48.92
79589;BME280;69067;51.930;4.492;2023-05-16T08:57:36;102215.31;;;19.65;47.58
79589;BME280;69067;51.930;4.492;2023-05-16T09:00:02;102224.13;;;19.67;47.98
79589;BME280;69067;51.930;4.492;2023-05-16T09:02:38;102231.22;;;19.68;48.50
79589;BME280;69067;51.930;4.492;2023-05-16T09:05:07;102226.81;;;19.67;48.72
79589;BME280;69067;51.930;4.492;2023-05-16T09:07:34;102230.38;;;19.67;47.82
79589;BME280;69067;51.930;4.492;2023-05-16T09:10:00;102232.22;;;19.67;48.01
79589;BME280;69067;51.930;4.492;2023-05-16T09:12:25;102238.34;;;19.69;48.38
79589;BME280;69067;51.930;4.492;2023-05-16T09:14:51;102234.94;;;19.67;48.46
79589;BME280;69067;51.930;4.492;2023-05-16T09:17:17;102226.69;;;19.69;48.25
79589;BME280;69067;51.930;4.492;2023-05-16T09:19:43;102240.19;;;19.69;48.25
79589;BME280;69067;51.930;4.492;2023-05-16T09:22:14;102240.19;;;19.69;48.44
79589;BME280;69067;51.930;4.492;2023-05-16T09:24:41;102242.91;;;19.69;47.78
79589;BME280;69067;51.930;4.492;2023-05-16T09:27:12;102241.03;;;19.69;48.19
79589;BME280;69067;51.930;4.492;2023-05-16T09:29:46;102243.75;;;19.69;48.53
79589;BME280;69067;51.930;4.492;2023-05-16T09:32:15;102246.72;;;19.66;48.03
79589;BME280;69067;51.930;4.492;2023-05-16T09:34:46;102249.28;;;19.67;47.84
79589;BME280;69067;51.930;4.492;2023-05-16T09:37:14;102244.03;;;19.66;47.23
79589;BME280;69067;51.930;4.492;2023-05-16T09:39:51;102250.16;;;19.68;47.68
79589;BME280;69067;51.930;4.492;2023-05-16T09:42:20;102244.75;;;19.68;48.39
79589;BME280;69067;51.930;4.492;2023-05-16T09:44:51;102241.19;;;19.67;47.77
79589;BME280;69067;51.930;4.492;2023-05-16T09:47:20;102256.53;;;19.67;47.84
79589;BME280;69067;51.930;4.492;2023-05-16T09:49:51;102256.41;;;19.69;47.52
79589;BME280;69067;51.930;4.492;2023-05-16T09:52:17;102252.84;;;19.68;48.55
79589;BME280;69067;51.930;4.492;2023-05-16T09:54:45;102243.19;;;19.65;48.82
79589;BME280;69067;51.930;4.492;2023-05-16T09:57:18;102244.75;;;19.68;48.08
79589;BME280;69067;51.930;4.492;2023-05-16T09:59:45;102255.69;;;19.66;47.85
79589;BME280;69067;51.930;4.492;2023-05-16T10:02:11;102247.44;;;19.68;47.68
79589;BME280;69067;51.930;4.492;2023-05-16T10:04:37;102243.75;;;19.69;48.19
79589;BME280;69067;51.930;4.492;2023-05-16T10:07:04;102247.13;;;19.71;46.84
79589;BME280;69067;51.930;4.492;2023-05-16T10:09:32;102246.13;;;19.72;47.46
79589;BME280;69067;51.930;4.492;2023-05-16T10:12:01;102248.84;;;19.72;47.64
79589;BME280;69067;51.930;4.492;2023-05-16T10:14:35;102247.84;;;19.73;47.83
79589;BME280;69067;51.930;4.492;2023-05-16T10:17:07;102254.25;;;19.72;47.00
79589;BME280;69067;51.930;4.492;2023-05-16T10:19:37;102255.94;;;19.73;47.61
79589;BME280;69067;51.930;4.492;2023-05-16T10:22:05;102258.50;;;19.75;47.93
79589;BME280;69067;51.930;4.492;2023-05-16T10:24:36;102256.66;;;19.75;47.54
79589;BME280;69067;51.930;4.492;2023-05-16T10:27:08;102253.09;;;19.75;47.74
79589;BME280;69067;51.930;4.492;2023-05-16T10:29:37;102252.25;;;19.74;47.81
79589;BME280;69067;51.930;4.492;2023-05-16T10:32:04;102248.56;;;19.75;47.04
79589;BME280;69067;51.930;4.492;2023-05-16T10:34:31;102244.16;;;19.74;46.73
79589;BME280;69067;51.930;4.492;2023-05-16T10:36:58;102240.91;;;19.71;47.03
79589;BME280;69067;51.930;4.492;2023-05-16T10:39:25;102247.84;;;19.73;47.55
79589;BME280;69067;51.930;4.492;2023-05-16T10:41:54;102237.75;;;19.75;46.84
79589;BME280;69067;51.930;4.492;2023-05-16T10:44:20;102236.03;;;19.74;47.44
79589;BME280;69067;51.930;4.492;2023-05-16T10:46:46;102242.28;;;19.75;47.78
79589;BME280;69067;51.930;4.492;2023-05-16T10:49:20;102236.31;;;19.71;46.71
79589;BME280;69067;51.930;4.492;2023-05-16T10:54:42;102238.59;;;19.76;46.35
79589;BME280;69067;51.930;4.492;2023-05-16T10:57:17;102239.88;;;19.72;47.50
79589;BME280;69067;51.930;4.492;2023-05-16T10:59:49;102238.88;;;19.73;46.64
79589;BME280;69067;51.930;4.492;2023-05-16T11:02:28;102243.88;;;19.77;47.18
79589;BME280;69067;51.930;4.492;2023-05-16T11:04:59;102233.06;;;19.77;47.38
79589;BME280;69067;51.930;4.492;2023-05-16T11:07:32;102235.31;;;19.72;48.20
79589;BME280;69067;51.930;4.492;2023-05-16T11:10:10;102234.91;;;19.77;49.23
79589;BME280;69067;51.930;4.492;2023-05-16T11:12:50;102240.31;;;19.77;49.03
79589;BME280;69067;51.930;4.492;2023-05-16T11:17:50;102246.25;;;19.80;48.87
79589;BME280;69067;51.930;4.492;2023-05-16T11:20:31;102238.13;;;19.80;49.81
79589;BME280;69067;51.930;4.492;2023-05-16T11:25:42;102231.34;;;19.76;49.35
79589;BME280;69067;51.930;4.492;2023-05-16T11:28:12;102247.09;;;19.81;48.12
79589;BME280;69067;51.930;4.492;2023-05-16T11:30:48;102247.97;;;19.81;48.56
79589;BME280;69067;51.930;4.492;2023-05-16T11:33:17;102253.22;;;19.83;48.71
79589;BME280;69067;51.930;4.492;2023-05-16T11:35:59;102245.97;;;19.83;48.02
79589;BME280;69067;51.930;4.492;2023-05-16T11:38:29;102253.09;;;19.84;48.30
79589;BME280;69067;51.930;4.492;2023-05-16T11:41:07;102253.22;;;19.83;48.36
79589;BME280;69067;51.930;4.492;2023-05-16T11:43:41;102254.22;;;19.82;48.63
79589;BME280;69067;51.930;4.492;2023-05-16T11:46:13;102246.97;;;19.82;47.93
79589;BME280;69067;51.930;4.492;2023-05-16T11:48:41;102251.06;;;19.86;48.28
79589;BME280;69067;51.930;4.492;2023-05-16T11:51:08;102249.22;;;19.87;48.05
79589;BME280;69067;51.930;4.492;2023-05-16T11:53:35;102252.91;;;19.86;47.69
79589;BME280;69067;51.930;4.492;2023-05-16T11:56:02;102247.69;;;19.84;48.25
79589;BME280;69067;51.930;4.492;2023-05-16T11:58:28;102243.41;;;19.82;48.60
79589;BME280;69067;51.930;4.492;2023-05-16T12:00:54;102242.94;;;19.86;48.79
79589;BME280;69067;51.930;4.492;2023-05-16T12:03:20;102253.75;;;19.86;48.16
79589;BME280;69067;51.930;4.492;2023-05-16T12:05:55;102247.22;;;19.89;49.34
79589;BME280;69067;51.930;4.492;2023-05-16T12:08:25;102245.38;;;19.89;49.51
79589;BME280;69067;51.930;4.492;2023-05-16T12:10:52;102240.81;;;19.90;48.92
79589;BME280;69067;51.930;4.492;2023-05-16T12:13:23;102257.88;;;19.90;49.11
79589;BME280;69067;51.930;4.492;2023-05-16T12:15:50;102252.47;;;19.90;50.03
79589;BME280;69067;51.930;4.492;2023-05-16T12:18:17;102254.31;;;19.90;49.12
79589;BME280;69067;51.930;4.492;2023-05-16T12:20:43;102243.38;;;19.91;49.70
79589;BME280;69067;51.930;4.492;2023-05-16T12:23:12;102244.19;;;19.92;49.18
79589;BME280;69067;51.930;4.492;2023-05-16T12:25:44;102239.63;;;19.92;48.48
79589;BME280;69067;51.930;4.492;2023-05-16T12:28:13;102250.44;;;19.92;48.35
79589;BME280;69067;51.930;4.492;2023-05-16T12:30:43;102239.63;;;19.92;49.33
79589;BME280;69067;51.930;4.492;2023-05-16T12:33:13;102255.00;;;19.92;48.54
79589;BME280;69067;51.930;4.492;2023-05-16T12:35:42;102258.75;;;19.91;48.62
79589;BME280;69067;51.930;4.492;2023-05-16T12:38:12;102253.16;;;19.92;48.46
79589;BME280;69067;51.930;4.492;2023-05-16T12:40:41;102245.75;;;19.94;48.54
79589;BME280;69067;51.930;4.492;2023-05-16T12:43:16;102246.75;;;19.93;48.80
79589;BME280;69067;51.930;4.492;2023-05-16T12:45:52;102240.81;;;19.90;48.53
79589;BME280;69067;51.930;4.492;2023-05-16T12:48:19;102238.25;;;19.88;48.30
79589;BME280;69067;51.930;4.492;2023-05-16T12:50:46;102248.47;;;19.94;47.62
79589;BME280;69067;51.930;4.492;2023-05-16T12:53:14;102245.75;;;19.94;48.80
79589;BME280;69067;51.930;4.492;2023-05-16T12:55:42;102252.16;;;19.93;48.70
79589;BME280;69067;51.930;4.492;2023-05-16T12:58:10;102253.88;;;19.94;48.39
79589;BME280;69067;51.930;4.492;2023-05-16T13:00:36;102235.09;;;19.93;47.43
79589;BME280;69067;51.930;4.492;2023-05-16T13:03:04;102248.78;;;19.91;48.17
79589;BME280;69067;51.930;4.492;2023-05-16T13:05:31;102252.00;;;19.95;47.45
79589;BME280;69067;51.930;4.492;2023-05-16T13:07:57;102251.88;;;19.96;47.44
79589;BME280;69067;51.930;4.492;2023-05-16T13:10:23;102241.19;;;19.95;47.51
79589;BME280;69067;51.930;4.492;2023-05-16T13:12:50;102248.19;;;19.97;47.17
79589;BME280;69067;51.930;4.492;2023-05-16T13:15:16;102253.59;;;19.97;47.52